sensor_id;sensor_type;location;lat;lon;timestamp;pressure;altitude;pressure_sealevel;temperature;humidity
28628;BME280;15815;46.760;19.604;2023-01-19T00:00:30;98547.06;;;6.98;100.00
28628;BME280;15815;46.760;19.604;2023-01-19T00:02:55;98543.84;;;7.00;100.00
28628;BME280;15815;46.760;19.604;2023-01-19T00:05:21;98540.69;;;6.98;100.00
28628;BME280;15815;46.760;19.604;2023-01-19T00:07:49;98539.13;;;6.97;100.00
28628;BME280;15815;46.760;19.604;2023-01-19T00:10:15;98539.47;;;6.99;100.00
28628;BME280;15815;46.760;19.604;2023-01-19T00:12:43;98530.44;;;6.91;100.00
28628;BME280;15815;46.760;19.604;2023-01-19T00:15:09;98515.75;;;6.87;100.00
28628;BME280;15815;46.760;19.604;2023-01-19T00:17:35;98506.19;;;6.85;100.00
28628;BME280;15815;46.760;19.604;2023-01-19T00:20:01;98498.28;;;6.79;100.00
28628;BME280;15815;46.760;19.604;2023-01-19T00:22:26;98503.44;;;6.81;100.00
28628;BME280;15815;46.760;19.604;2023-01-19T00:24:53;98498.81;;;6.71;100.00
28628;BME280;15815;46.760;19.604;2023-01-19T00:27:18;98520.19;;;6.81;100.00
28628;BME280;15815;46.760;19.604;2023-01-19T00:29:44;98506.84;;;6.69;100.00
28628;BME280;15815;46.760;19.604;2023-01-19T00:32:10;98503.69;;;6.67;100.00
28628;BME280;15815;46.760;19.604;2023-01-19T00:34:36;98508.78;;;6.72;100.00
28628;BME280;15815;46.760;19.604;2023-01-19T00:37:02;98510.78;;;6.71;100.00
28628;BME280;15815;46.760;19.604;2023-01-19T00:39:29;98508.53;;;6.63;100.00
28628;BME280;15815;46.760;19.604;2023-01-19T00:41:54;98504.91;;;6.66;100.00
28628;BME280;15815;46.760;19.604;2023-01-19T00:44:23;98484.75;;;6.51;100.00
28628;BME280;15815;46.760;19.604;2023-01-19T00:46:51;98491.41;;;6.61;100.00
28628;BME280;15815;46.760;19.604;2023-01-19T00:49:17;98486.25;;;6.59;100.00
28628;BME280;15815;46.760;19.604;2023-01-19T00:51:42;98491.00;;;6.62;100.00
28628;BME280;15815;46.760;19.604;2023-01-19T00:54:08;98483.47;;;6.59;100.00
28628;BME280;15815;46.760;19.604;2023-01-19T00:56:33;98460.81;;;6.54;100.00
28628;BME280;15815;46.760;19.604;2023-01-19T00:58:59;98459.56;;;6.58;100.00
28628;BME280;15815;46.760;19.604;2023-01-19T01:01:25;98454.50;;;6.49;100.00
28628;BME280;15815;46.760;19.604;2023-01-19T01:03:52;98456.81;;;6.55;100.00
28628;BME280;15815;46.760;19.604;2023-01-19T01:06:21;98447.22;;;6.56;100.00
28628;BME280;15815;46.760;19.604;2023-01-19T01:08:47;98453.69;;;6.49;100.00
28628;BME280;15815;46.760;19.604;2023-01-19T01:11:12;98480.44;;;6.46;100.00
28628;BME280;15815;46.760;19.604;2023-01-19T01:13:39;98488.34;;;6.51;100.00
28628;BME280;15815;46.760;19.604;2023-01-19T01:16:04;98470.63;;;6.38;100.00
28628;BME280;15815;46.760;19.604;2023-01-19T01:18:30;98506.25;;;6.54;100.00
28628;BME280;15815;46.760;19.604;2023-01-19T01:21:03;98501.09;;;6.53;100.00
28628;BME280;15815;46.760;19.604;2023-01-19T01:23:29;98493.19;;;6.47;100.00
28628;BME280;15815;46.760;19.604;2023-01-19T01:25:55;98479.31;;;6.44;100.00
28628;BME280;15815;46.760;19.604;2023-01-19T01:28:21;98453.50;;;6.36;100.00
28628;BME280;15815;46.760;19.604;2023-01-19T01:30:47;98469.28;;;6.46;100.00
28628;BME280;15815;46.760;19.604;2023-01-19T01:33:12;98445.03;;;6.43;100.00
28628;BME280;15815;46.760;19.604;2023-01-19T01:35:40;98446.66;;;6.41;100.00
28628;BME280;15815;46.760;19.604;2023-01-19T01:38:05;98451.44;;;6.40;100.00
28628;BME280;15815;46.760;19.604;2023-01-19T01:42:56;98478.81;;;6.49;100.00
28628;BME280;15815;46.760;19.604;2023-01-19T01:45:37;98472.75;;;6.54;100.00
28628;BME280;15815;46.760;19.604;2023-01-19T01:51:03;98441.75;;;6.48;100.00
28628;BME280;15815;46.760;19.604;2023-01-19T01:53:31;98444.53;;;6.48;100.00
28628;BME280;15815;46.760;19.604;2023-01-19T01:55:58;98443.69;;;6.51;100.00
28628;BME280;15815;46.760;19.604;2023-01-19T01:58:26;98457.66;;;6.51;100.00
28628;BME280;15815;46.760;19.604;2023-01-19T02:00:52;98462.81;;;6.53;100.00
28628;BME280;15815;46.760;19.604;2023-01-19T02:03:17;98465.66;;;6.49;100.00
28628;BME280;15815;46.760;19.604;2023-01-19T02:05:43;98452.28;;;6.37;100.00
28628;BME280;15815;46.760;19.604;2023-01-19T02:08:41;98465.50;;;6.60;100.00
28628;BME280;15815;46.760;19.604;2023-01-19T02:11:08;98475.88;;;6.60;100.00
28628;BME280;15815;46.760;19.604;2023-01-19T02:13:40;98471.47;;;6.62;100.00
28628;BME280;15815;46.760;19.604;2023-01-19T02:16:07;98468.31;;;6.60;100.00
28628;BME280;15815;46.760;19.604;2023-01-19T02:18:34;98463.09;;;6.62;100.00
28628;BME280;15815;46.760;19.604;2023-01-19T02:23:40;98455.00;;;6.68;100.00
28628;BME280;15815;46.760;19.604;2023-01-19T02:26:09;98440.69;;;6.66;100.00
28628;BME280;15815;46.760;19.604;2023-01-19T02:28:40;98462.97;;;6.69;100.00
28628;BME280;15815;46.760;19.604;2023-01-19T02:31:10;98460.91;;;6.73;100.00
28628;BME280;15815;46.760;19.604;2023-01-19T02:33:37;98441.84;;;6.68;100.00
28628;BME280;15815;46.760;19.604;2023-01-19T02:36:05;98450.03;;;6.79;100.00
28628;BME280;15815;46.760;19.604;2023-01-19T02:38:32;98471.88;;;6.61;100.00
28628;BME280;15815;46.760;19.604;2023-01-19T02:40:59;98485.97;;;6.77;100.00
28628;BME280;15815;46.760;19.604;2023-01-19T02:43:29;98471.16;;;6.80;100.00
28628;BME280;15815;46.760;19.604;2023-01-19T02:45:55;98458.84;;;6.77;100.00
28628;BME280;15815;46.760;19.604;2023-01-19T02:48:21;98447.84;;;6.67;100.00
28628;BME280;15815;46.760;19.604;2023-01-19T02:50:57;98474.78;;;6.77;100.00
28628;BME280;15815;46.760;19.604;2023-01-19T02:53:48;98489.84;;;6.83;100.00
28628;BME280;15815;46.760;19.604;2023-01-19T03:02:06;98518.91;;;6.89;100.00
28628;BME280;15815;46.760;19.604;2023-01-19T03:07:13;98526.56;;;6.81;100.00
28628;BME280;15815;46.760;19.604;2023-01-19T03:10:06;98511.59;;;6.95;100.00
28628;BME280;15815;46.760;19.604;2023-01-19T03:12:39;98512.16;;;6.87;100.00
28628;BME280;15815;46.760;19.604;2023-01-19T03:15:17;98500.78;;;6.74;100.00
28628;BME280;15815;46.760;19.604;2023-01-19T03:17:44;98500.19;;;6.86;100.00
28628;BME280;15815;46.760;19.604;2023-01-19T03:20:20;98481.75;;;6.92;100.00
28628;BME280;15815;46.760;19.604;2023-01-19T03:22:51;98472.50;;;6.95;100.00
28628;BME280;15815;46.760;19.604;2023-01-19T03:25:21;98476.16;;;6.92;100.00
28628;BME280;15815;46.760;19.604;2023-01-19T03:27:49;98491.41;;;6.88;100.00
28628;BME280;15815;46.760;19.604;2023-01-19T03:30:21;98489.38;;;6.88;100.00
28628;BME280;15815;46.760;19.604;2023-01-19T03:33:10;98490.00;;;6.99;100.00
28628;BME280;15815;46.760;19.604;2023-01-19T03:35:41;98481.75;;;6.92;100.00
28628;BME280;15815;46.760;19.604;2023-01-19T03:38:13;98490.91;;;6.93;100.00
28628;BME280;15815;46.760;19.604;2023-01-19T03:40:40;98503.38;;;6.85;100.00
28628;BME280;15815;46.760;19.604;2023-01-19T03:43:06;98512.09;;;6.90;100.00
28628;BME280;15815;46.760;19.604;2023-01-19T03:45:36;98506.50;;;6.90;100.00
28628;BME280;15815;46.760;19.604;2023-01-19T03:48:03;98501.50;;;6.78;100.00
28628;BME280;15815;46.760;19.604;2023-01-19T03:50:29;98474.44;;;6.75;100.00
28628;BME280;15815;46.760;19.604;2023-01-19T03:53:08;98497.75;;;6.88;100.00
28628;BME280;15815;46.760;19.604;2023-01-19T03:55:38;98491.47;;;6.80;100.00
28628;BME280;15815;46.760;19.604;2023-01-19T03:58:05;98514.97;;;6.83;100.00
28628;BME280;15815;46.760;19.604;2023-01-19T04:00:32;98530.53;;;6.84;100.00
28628;BME280;15815;46.760;19.604;2023-01-19T04:02:58;98542.97;;;6.79;100.00
28628;BME280;15815;46.760;19.604;2023-01-19T04:05:23;98556.19;;;6.75;100.00
28628;BME280;15815;46.760;19.604;2023-01-19T04:07:50;98572.03;;;6.82;100.00
28628;BME280;15815;46.760;19.604;2023-01-19T04:10:16;98554.56;;;6.78;100.00
28628;BME280;15815;46.760;19.604;2023-01-19T04:12:43;98550.97;;;6.77;100.00
28628;BME280;15815;46.760;19.604;2023-01-19T04:15:09;98543.88;;;6.73;100.00
28628;BME280;15815;46.760;19.604;2023-01-19T04:17:36;98557.78;;;6.76;100.00
28628;BME280;15815;46.760;19.604;2023-01-19T04:20:02;98544.72;;;6.70;100.00
28628;BME280;15815;46.760;19.604;2023-01-19T04:22:28;98522.50;;;6.63;100.00
28628;BME280;15815;46.760;19.604;2023-01-19T04:24:54;98513.63;;;6.68;100.00
28628;BME280;15815;46.760;19.604;2023-01-19T04:27:20;98524.31;;;6.73;100.00
28628;BME280;15815;46.760;19.604;2023-01-19T04:29:45;98501.38;;;6.62;100.00
28628;BME280;15815;46.760;19.604;2023-01-19T04:32:17;98497.84;;;6.58;100.00
28628;BME280;15815;46.760;19.604;2023-01-19T04:34:43;98489.56;;;6.50;100.00
28628;BME280;15815;46.760;19.604;2023-01-19T04:37:09;98486.69;;;6.58;100.00
28628;BME280;15815;46.760;19.604;2023-01-19T04:39:35;98483.19;;;6.50;100.00
28628;BME280;15815;46.760;19.604;2023-01-19T04:42:01;98501.47;;;6.55;100.00
28628;BME280;15815;46.760;19.604;2023-01-19T04:44:27;98507.38;;;6.60;100.00
28628;BME280;15815;46.760;19.604;2023-01-19T04:46:53;98516.63;;;6.54;100.00
28628;BME280;15815;46.760;19.604;2023-01-19T04:49:18;98517.09;;;6.48;100.00
28628;BME280;15815;46.760;19.604;2023-01-19T04:51:44;98539.31;;;6.56;100.00
28628;BME280;15815;46.760;19.604;2023-01-19T04:54:09;98533.47;;;6.46;100.00
28628;BME280;15815;46.760;19.604;2023-01-19T04:56:37;98538.94;;;6.54;100.00
28628;BME280;15815;46.760;19.604;2023-01-19T04:59:03;98538.94;;;6.54;100.00
28628;BME280;15815;46.760;19.604;2023-01-19T05:01:28;98521.69;;;6.35;100.00
28628;BME280;15815;46.760;19.604;2023-01-19T05:03:54;98554.97;;;6.49;100.00
28628;BME280;15815;46.760;19.604;2023-01-19T05:06:22;98534.75;;;6.42;100.00
28628;BME280;15815;46.760;19.604;2023-01-19T05:08:47;98541.13;;;6.42;100.00
28628;BME280;15815;46.760;19.604;2023-01-19T05:11:15;98554.59;;;6.47;100.00
28628;BME280;15815;46.760;19.604;2023-01-19T05:13:41;98554.13;;;6.53;100.00
28628;BME280;15815;46.760;19.604;2023-01-19T05:16:06;98554.22;;;6.45;100.00
28628;BME280;15815;46.760;19.604;2023-01-19T05:18:32;98557.75;;;6.49;100.00
28628;BME280;15815;46.760;19.604;2023-01-19T05:20:58;98582.06;;;6.49;100.00
28628;BME280;15815;46.760;19.604;2023-01-19T05:23:23;98568.75;;;6.30;100.00
28628;BME280;15815;46.760;19.604;2023-01-19T05:25:49;98548.91;;;6.24;100.00
28628;BME280;15815;46.760;19.604;2023-01-19T05:28:15;98552.84;;;6.30;100.00
28628;BME280;15815;46.760;19.604;2023-01-19T05:30:41;98560.00;;;6.31;100.00
28628;BME280;15815;46.760;19.604;2023-01-19T05:33:06;98548.53;;;6.22;100.00
28628;BME280;15815;46.760;19.604;2023-01-19T05:35:32;98549.00;;;6.17;100.00
28628;BME280;15815;46.760;19.604;2023-01-19T05:37:58;98537.97;;;6.10;100.00
28628;BME280;15815;46.760;19.604;2023-01-19T05:40:23;98552.28;;;6.12;100.00
28628;BME280;15815;46.760;19.604;2023-01-19T05:42:49;98582.41;;;6.24;100.00
28628;BME280;15815;46.760;19.604;2023-01-19T05:45:14;98591.31;;;6.12;100.00
28628;BME280;15815;46.760;19.604;2023-01-19T05:47:40;98598.84;;;6.15;100.00
28628;BME280;15815;46.760;19.604;2023-01-19T05:50:06;98598.47;;;6.13;100.00
28628;BME280;15815;46.760;19.604;2023-01-19T05:52:33;98596.63;;;6.03;100.00
28628;BME280;15815;46.760;19.604;2023-01-19T05:54:58;98594.25;;;5.98;100.00
28628;BME280;15815;46.760;19.604;2023-01-19T05:57:27;98609.72;;;6.06;100.00
28628;BME280;15815;46.760;19.604;2023-01-19T05:59:52;98611.41;;;5.96;100.00
28628;BME280;15815;46.760;19.604;2023-01-19T06:02:18;98622.97;;;5.95;100.00
28628;BME280;15815;46.760;19.604;2023-01-19T06:04:44;98619.44;;;5.91;100.00
28628;BME280;15815;46.760;19.604;2023-01-19T06:07:11;98629.72;;;5.97;100.00
28628;BME280;15815;46.760;19.604;2023-01-19T06:09:36;98612.41;;;5.75;100.00
28628;BME280;15815;46.760;19.604;2023-01-19T06:12:02;98619.06;;;5.85;100.00
28628;BME280;15815;46.760;19.604;2023-01-19T06:14:28;98620.34;;;5.77;100.00
28628;BME280;15815;46.760;19.604;2023-01-19T06:16:53;98624.31;;;5.79;100.00
28628;BME280;15815;46.760;19.604;2023-01-19T06:19:19;98636.97;;;5.87;100.00
28628;BME280;15815;46.760;19.604;2023-01-19T06:21:47;98642.53;;;5.87;100.00
28628;BME280;15815;46.760;19.604;2023-01-19T06:24:14;98631.09;;;5.78;100.00
28628;BME280;15815;46.760;19.604;2023-01-19T06:26:41;98617.91;;;5.82;100.00
28628;BME280;15815;46.760;19.604;2023-01-19T06:29:08;98610.84;;;5.71;100.00
28628;BME280;15815;46.760;19.604;2023-01-19T06:31:33;98608.09;;;5.67;100.00
28628;BME280;15815;46.760;19.604;2023-01-19T06:33:59;98630.72;;;5.76;100.00
28628;BME280;15815;46.760;19.604;2023-01-19T06:36:25;98627.13;;;5.76;100.00
28628;BME280;15815;46.760;19.604;2023-01-19T06:38:50;98625.25;;;5.62;100.00
28628;BME280;15815;46.760;19.604;2023-01-19T06:41:16;98642.78;;;5.63;100.00
28628;BME280;15815;46.760;19.604;2023-01-19T06:43:41;98652.22;;;5.72;100.00
28628;BME280;15815;46.760;19.604;2023-01-19T06:46:07;98659.03;;;5.68;100.00
28628;BME280;15815;46.760;19.604;2023-01-19T06:48:32;98648.31;;;5.66;100.00
28628;BME280;15815;46.760;19.604;2023-01-19T06:50:58;98650.69;;;5.68;100.00
28628;BME280;15815;46.760;19.604;2023-01-19T06:53:24;98652.72;;;5.64;100.00
28628;BME280;15815;46.760;19.604;2023-01-19T06:55:49;98679.34;;;5.68;100.00
28628;BME280;15815;46.760;19.604;2023-01-19T06:58:15;98669.81;;;5.66;100.00
28628;BME280;15815;46.760;19.604;2023-01-19T07:00:41;98684.13;;;5.68;100.00
28628;BME280;15815;46.760;19.604;2023-01-19T07:03:07;98686.50;;;5.69;100.00
28628;BME280;15815;46.760;19.604;2023-01-19T07:05:34;98682.91;;;5.72;100.00
28628;BME280;15815;46.760;19.604;2023-01-19T07:08:01;98676.19;;;5.66;100.00
28628;BME280;15815;46.760;19.604;2023-01-19T07:10:27;98690.16;;;5.63;100.00
28628;BME280;15815;46.760;19.604;2023-01-19T07:12:55;98687.34;;;5.66;100.00
28628;BME280;15815;46.760;19.604;2023-01-19T07:15:21;98692.13;;;5.66;100.00
28628;BME280;15815;46.760;19.604;2023-01-19T07:17:48;98707.59;;;5.70;100.00
28628;BME280;15815;46.760;19.604;2023-01-19T07:20:14;98704.13;;;5.59;100.00
28628;BME280;15815;46.760;19.604;2023-01-19T07:22:41;98709.59;;;5.70;100.00
28628;BME280;15815;46.760;19.604;2023-01-19T07:25:09;98703.22;;;5.69;100.00
28628;BME280;15815;46.760;19.604;2023-01-19T07:27:39;98693.31;;;5.65;100.00
28628;BME280;15815;46.760;19.604;2023-01-19T07:30:06;98704.81;;;5.70;100.00
28628;BME280;15815;46.760;19.604;2023-01-19T07:32:35;98693.31;;;5.65;100.00
28628;BME280;15815;46.760;19.604;2023-01-19T07:35:00;98708.78;;;5.76;100.00
28628;BME280;15815;46.760;19.604;2023-01-19T07:37:26;98698.84;;;5.72;100.00
28628;BME280;15815;46.760;19.604;2023-01-19T07:39:51;98714.34;;;5.73;100.00
28628;BME280;15815;46.760;19.604;2023-01-19T07:42:17;98704.84;;;5.67;100.00
28628;BME280;15815;46.760;19.604;2023-01-19T07:44:43;98708.81;;;5.69;100.00
28628;BME280;15815;46.760;19.604;2023-01-19T07:47:08;98708.81;;;5.69;100.00
28628;BME280;15815;46.760;19.604;2023-01-19T07:49:34;98697.41;;;5.53;100.00
28628;BME280;15815;46.760;19.604;2023-01-19T07:52:00;98701.34;;;5.59;100.00
28628;BME280;15815;46.760;19.604;2023-01-19T07:54:26;98722.81;;;5.62;100.00
28628;BME280;15815;46.760;19.604;2023-01-19T07:56:55;98717.72;;;5.53;100.00
28628;BME280;15815;46.760;19.604;2023-01-19T07:59:21;98712.16;;;5.50;100.00
28628;BME280;15815;46.760;19.604;2023-01-19T08:01:46;98724.84;;;5.58;100.00
28628;BME280;15815;46.760;19.604;2023-01-19T08:04:12;98709.00;;;5.44;100.00
28628;BME280;15815;46.760;19.604;2023-01-19T08:06:38;98723.22;;;5.61;100.00
28628;BME280;15815;46.760;19.604;2023-01-19T08:09:04;98713.78;;;5.44;100.00
28628;BME280;15815;46.760;19.604;2023-01-19T08:11:30;98713.00;;;5.40;100.00
28628;BME280;15815;46.760;19.604;2023-01-19T08:13:56;98737.19;;;5.57;100.00
28628;BME280;15815;46.760;19.604;2023-01-19T08:16:22;98745.94;;;5.59;100.00
28628;BME280;15815;46.760;19.604;2023-01-19T08:18:47;98722.50;;;5.46;100.00
28628;BME280;15815;46.760;19.604;2023-01-19T08:21:13;98742.31;;;5.62;100.00
28628;BME280;15815;46.760;19.604;2023-01-19T08:23:38;98720.84;;;5.59;100.00
28628;BME280;15815;46.760;19.604;2023-01-19T08:26:39;98720.44;;;5.61;100.00
28628;BME280;15815;46.760;19.604;2023-01-19T08:29:06;98684.25;;;5.57;100.00
28628;BME280;15815;46.760;19.604;2023-01-19T08:31:31;98689.06;;;5.49;100.00
28628;BME280;15815;46.760;19.604;2023-01-19T08:33:57;98715.28;;;5.59;100.00
28628;BME280;15815;46.760;19.604;2023-01-19T08:36:23;98698.22;;;5.46;100.00
28628;BME280;15815;46.760;19.604;2023-01-19T08:38:48;98691.81;;;5.56;100.00
28628;BME280;15815;46.760;19.604;2023-01-19T08:41:14;98708.91;;;5.58;100.00
28628;BME280;15815;46.760;19.604;2023-01-19T08:43:40;98703.31;;;5.62;100.00
28628;BME280;15815;46.760;19.604;2023-01-19T08:46:05;98703.31;;;5.62;100.00
28628;BME280;15815;46.760;19.604;2023-01-19T08:48:31;98729.53;;;5.68;100.00
28628;BME280;15815;46.760;19.604;2023-01-19T08:50:57;98730.44;;;5.54;100.00
28628;BME280;15815;46.760;19.604;2023-01-19T08:53:22;98730.84;;;5.53;100.00
28628;BME280;15815;46.760;19.604;2023-01-19T08:55:53;98760.53;;;5.74;100.00
28628;BME280;15815;46.760;19.604;2023-01-19T08:58:19;98744.28;;;5.65;100.00
28628;BME280;15815;46.760;19.604;2023-01-19T09:00:44;98717.66;;;5.61;100.00
28628;BME280;15815;46.760;19.604;2023-01-19T09:03:11;98743.03;;;5.73;100.00
28628;BME280;15815;46.760;19.604;2023-01-19T09:05:38;98730.47;;;5.51;100.00
28628;BME280;15815;46.760;19.604;2023-01-19T09:08:06;98736.75;;;5.62;100.00
28628;BME280;15815;46.760;19.604;2023-01-19T09:10:33;98739.81;;;5.78;100.00
28628;BME280;15815;46.760;19.604;2023-01-19T09:12:58;98748.59;;;5.77;99.69
28628;BME280;15815;46.760;19.604;2023-01-19T09:15:24;98745.41;;;5.78;100.00
28628;BME280;15815;46.760;19.604;2023-01-19T09:17:51;98752.19;;;5.70;100.00
28628;BME280;15815;46.760;19.604;2023-01-19T09:20:17;98763.75;;;5.69;99.60
28628;BME280;15815;46.760;19.604;2023-01-19T09:22:42;98773.31;;;5.71;99.19
28628;BME280;15815;46.760;19.604;2023-01-19T09:25:08;98780.47;;;5.72;100.00
28628;BME280;15815;46.760;19.604;2023-01-19T09:27:34;98762.56;;;5.70;99.69
28628;BME280;15815;46.760;19.604;2023-01-19T09:30:00;98750.94;;;5.82;99.68
28628;BME280;15815;46.760;19.604;2023-01-19T09:32:25;98774.78;;;5.86;100.00
28628;BME280;15815;46.760;19.604;2023-01-19T09:34:51;98770.03;;;5.83;99.94
28628;BME280;15815;46.760;19.604;2023-01-19T09:37:17;98768.34;;;5.97;100.00
28628;BME280;15815;46.760;19.604;2023-01-19T09:39:43;98764.81;;;5.93;100.00
28628;BME280;15815;46.760;19.604;2023-01-19T09:42:43;98771.50;;;6.06;100.00
28628;BME280;15815;46.760;19.604;2023-01-19T09:45:38;98770.78;;;5.95;99.84
28628;BME280;15815;46.760;19.604;2023-01-19T09:48:23;98759.16;;;6.00;99.97
28628;BME280;15815;46.760;19.604;2023-01-19T09:50:54;98772.28;;;6.06;100.00
28628;BME280;15815;46.760;19.604;2023-01-19T09:56:20;98775.47;;;6.01;100.00
28628;BME280;15815;46.760;19.604;2023-01-19T09:58:48;98787.47;;;5.98;100.00
28628;BME280;15815;46.760;19.604;2023-01-19T10:06:56;98784.59;;;6.09;100.00
28628;BME280;15815;46.760;19.604;2023-01-19T10:09:32;98767.16;;;5.98;100.00
28628;BME280;15815;46.760;19.604;2023-01-19T10:15:06;98791.50;;;5.94;100.00
28628;BME280;15815;46.760;19.604;2023-01-19T10:20:18;98777.66;;;5.79;100.00
28628;BME280;15815;46.760;19.604;2023-01-19T10:22:48;98797.91;;;5.83;100.00
28628;BME280;15815;46.760;19.604;2023-01-19T10:25:18;98785.16;;;5.86;100.00
28628;BME280;15815;46.760;19.604;2023-01-19T10:27:45;98781.97;;;5.87;100.00
28628;BME280;15815;46.760;19.604;2023-01-19T10:30:21;98786.72;;;5.94;100.00
28628;BME280;15815;46.760;19.604;2023-01-19T10:32:49;98782.00;;;5.80;100.00
28628;BME280;15815;46.760;19.604;2023-01-19T10:35:17;98797.84;;;5.94;100.00
28628;BME280;15815;46.760;19.604;2023-01-19T10:37:43;98787.88;;;5.97;100.00
28628;BME280;15815;46.760;19.604;2023-01-19T10:42:40;98781.22;;;6.28;100.00
28628;BME280;15815;46.760;19.604;2023-01-19T10:45:22;98780.81;;;6.33;100.00
28628;BME280;15815;46.760;19.604;2023-01-19T10:47:49;98782.75;;;6.36;100.00
28628;BME280;15815;46.760;19.604;2023-01-19T10:52:51;98763.91;;;6.47;100.00
28628;BME280;15815;46.760;19.604;2023-01-19T10:55:33;98756.59;;;6.61;100.00
28628;BME280;15815;46.760;19.604;2023-01-19T10:58:02;98758.59;;;6.60;100.00
28628;BME280;15815;46.760;19.604;2023-01-19T11:03:23;98762.56;;;6.63;100.00
28628;BME280;15815;46.760;19.604;2023-01-19T11:05:49;98773.09;;;6.82;100.00
28628;BME280;15815;46.760;19.604;2023-01-19T11:08:27;98779.38;;;6.93;100.00
28628;BME280;15815;46.760;19.604;2023-01-19T11:10:58;98777.59;;;7.06;100.00
28628;BME280;15815;46.760;19.604;2023-01-19T11:13:26;98776.09;;;6.98;100.00
28628;BME280;15815;46.760;19.604;2023-01-19T11:15:57;98758.38;;;6.78;100.00
28628;BME280;15815;46.760;19.604;2023-01-19T11:20:54;98772.34;;;6.78;100.00
28628;BME280;15815;46.760;19.604;2023-01-19T11:23:33;98788.25;;;6.81;100.00
28628;BME280;15815;46.760;19.604;2023-01-19T11:26:04;98785.59;;;6.70;100.00
28628;BME280;15815;46.760;19.604;2023-01-19T11:28:36;98790.84;;;6.65;100.00
28628;BME280;15815;46.760;19.604;2023-01-19T11:36:18;98799.25;;;6.61;100.00
28628;BME280;15815;46.760;19.604;2023-01-19T11:38:45;98807.91;;;6.74;100.00
28628;BME280;15815;46.760;19.604;2023-01-19T11:41:20;98825.84;;;6.73;100.00
28628;BME280;15815;46.760;19.604;2023-01-19T11:43:54;98813.84;;;6.76;100.00
28628;BME280;15815;46.760;19.604;2023-01-19T11:46:28;98819.91;;;6.71;100.00
28628;BME280;15815;46.760;19.604;2023-01-19T11:51:57;98832.41;;;6.56;100.00
28628;BME280;15815;46.760;19.604;2023-01-19T11:54:30;98840.84;;;6.48;100.00
28628;BME280;15815;46.760;19.604;2023-01-19T11:56:58;98854.91;;;6.38;100.00
28628;BME280;15815;46.760;19.604;2023-01-19T11:59:24;98850.66;;;6.19;100.00
28628;BME280;15815;46.760;19.604;2023-01-19T12:01:58;98859.91;;;6.09;99.58
28628;BME280;15815;46.760;19.604;2023-01-19T12:04:31;98852.78;;;6.04;99.45
28628;BME280;15815;46.760;19.604;2023-01-19T12:07:04;98850.06;;;5.94;98.92
28628;BME280;15815;46.760;19.604;2023-01-19T12:09:39;98856.41;;;5.94;98.45
28628;BME280;15815;46.760;19.604;2023-01-19T12:12:14;98848.53;;;5.78;98.52
28628;BME280;15815;46.760;19.604;2023-01-19T12:15:07;98870.38;;;5.87;98.54
28628;BME280;15815;46.760;19.604;2023-01-19T12:17:42;98864.88;;;5.76;99.53
28628;BME280;15815;46.760;19.604;2023-01-19T12:20:26;98882.81;;;5.75;98.85
28628;BME280;15815;46.760;19.604;2023-01-19T12:26:46;98907.50;;;5.70;99.40
28628;BME280;15815;46.760;19.604;2023-01-19T12:28:41;98903.19;;;5.58;99.55
28628;BME280;15815;46.760;19.604;2023-01-19T12:31:09;98920.72;;;5.55;99.23
28628;BME280;15815;46.760;19.604;2023-01-19T12:33:38;98926.69;;;5.61;99.42
28628;BME280;15815;46.760;19.604;2023-01-19T12:36:33;98928.69;;;5.56;99.25
28628;BME280;15815;46.760;19.604;2023-01-19T12:41:37;98944.66;;;5.42;98.25
28628;BME280;15815;46.760;19.604;2023-01-19T12:46:45;98959.78;;;5.44;97.86
28628;BME280;15815;46.760;19.604;2023-01-19T12:52:31;98966.19;;;5.31;97.45
28628;BME280;15815;46.760;19.604;2023-01-19T12:55:15;98966.19;;;5.20;97.73
28628;BME280;15815;46.760;19.604;2023-01-19T13:02:48;98956.66;;;5.24;98.28
28628;BME280;15815;46.760;19.604;2023-01-19T13:11:12;98978.16;;;5.17;97.84
28628;BME280;15815;46.760;19.604;2023-01-19T13:21:25;98988.91;;;5.04;97.47
28628;BME280;15815;46.760;19.604;2023-01-19T13:23:57;99006.03;;;4.99;97.05
28628;BME280;15815;46.760;19.604;2023-01-19T13:26:26;99017.19;;;4.95;97.64
28628;BME280;15815;46.760;19.604;2023-01-19T13:28:54;99023.53;;;5.03;97.94
28628;BME280;15815;46.760;19.604;2023-01-19T13:31:25;99023.94;;;5.02;98.18
28628;BME280;15815;46.760;19.604;2023-01-19T13:33:58;99038.66;;;5.06;98.34
28628;BME280;15815;46.760;19.604;2023-01-19T13:36:31;99049.00;;;5.05;98.21
28628;BME280;15815;46.760;19.604;2023-01-19T13:39:03;99050.97;;;4.87;98.46
28628;BME280;15815;46.760;19.604;2023-01-19T13:41:34;99049.78;;;4.99;99.05
28628;BME280;15815;46.760;19.604;2023-01-19T13:44:23;99044.63;;;4.93;98.36
28628;BME280;15815;46.760;19.604;2023-01-19T13:46:48;99047.00;;;4.81;98.47
28628;BME280;15815;46.760;19.604;2023-01-19T13:49:25;99054.53;;;4.80;99.00
28628;BME280;15815;46.760;19.604;2023-01-19T13:52:03;99075.22;;;4.90;98.15
28628;BME280;15815;46.760;19.604;2023-01-19T13:54:29;99091.13;;;4.82;98.46
28628;BME280;15815;46.760;19.604;2023-01-19T13:56:55;99085.56;;;4.82;98.98
28628;BME280;15815;46.760;19.604;2023-01-19T13:59:20;99099.88;;;4.81;98.46
28628;BME280;15815;46.760;19.604;2023-01-19T14:01:46;99113.41;;;4.82;98.53
28628;BME280;15815;46.760;19.604;2023-01-19T14:04:29;99084.38;;;4.80;98.30
28628;BME280;15815;46.760;19.604;2023-01-19T14:06:58;99095.91;;;4.82;98.30
28628;BME280;15815;46.760;19.604;2023-01-19T14:09:25;99101.06;;;4.80;98.43
28628;BME280;15815;46.760;19.604;2023-01-19T14:12:12;99091.94;;;4.90;98.18
28628;BME280;15815;46.760;19.604;2023-01-19T14:14:38;99088.75;;;4.84;98.70
28628;BME280;15815;46.760;19.604;2023-01-19T14:17:04;99093.13;;;4.85;98.95
28628;BME280;15815;46.760;19.604;2023-01-19T14:19:49;99099.09;;;4.80;98.41